Terminal Aerodrome Forecast
Issued by NWS

Home | Current Version | Previous Version | Text Only | Print | Product List | Glossary On
Versions: 1 2 3 4 5 6 7 8 9 10 11 12 13 14 15 16 17
000
FTUS43 KIWX 180047 AAA
TAFSBN
TAF AMD
KSBN 180047Z 1801/1824 17014G23KT P6SM -TSRA OVC025CB WS020/20040KT
      TEMPO 1801/1802 5SM -TSRA BR
     FM180200 17014G23KT P6SM OVC025 WS020/20040KT
     FM180400 19012KT 5SM -SHRA OVC010 WS020/21050KT
     FM180800 21008KT 3SM -SHRA BR OVC008
     FM181800 34018G26KT 3SM -SHRA BR OVC008=

USA.gov is the U.S. government's official web portal to all federal, state and local government web resources and services.